createdAt,value
2019-04-22T00:01:51.333Z,60.12
2019-04-22T00:04:35.381Z,60.22
2019-04-22T00:07:09.868Z,61.33
2019-04-22T00:09:49.942Z,61.31
2019-04-22T00:14:43.923Z,61.18
2019-04-22T00:17:22.065Z,61.00
2019-04-22T00:19:55.526Z,61.51
2019-04-22T00:24:46.330Z,61.23
2019-04-22T00:27:24.031Z,60.97
2019-04-22T00:30:00.635Z,60.39
2019-04-22T00:32:24.612Z,60.57
2019-04-22T00:34:59.338Z,60.39
2019-04-22T00:37:37.893Z,60.75
2019-04-22T00:39:58.445Z,60.66
2019-04-22T00:42:36.096Z,60.80
2019-04-22T00:45:07.941Z,60.43
2019-04-22T00:47:34.914Z,61.16
2019-04-22T00:50:19.283Z,60.57
2019-04-22T00:52:33.840Z,60.64
2019-04-22T00:55:07.665Z,59.26
2019-04-22T00:57:27.866Z,60.10
2019-04-22T01:00:05.599Z,59.61
2019-04-22T01:02:46.209Z,59.19
2019-04-22T01:05:15.179Z,59.40
2019-04-22T01:07:40.803Z,59.40
2019-04-22T01:10:12.709Z,59.93
2019-04-22T01:12:39.212Z,60.04
2019-04-22T01:15:10.924Z,59.23
2019-04-22T01:17:41.763Z,58.95
2019-04-22T01:20:25.783Z,59.36
2019-04-22T01:22:33.015Z,59.48
2019-04-22T01:25:08.110Z,59.67
2019-04-22T01:27:36.630Z,60.55
2019-04-22T01:30:00.981Z,61.31
2019-04-22T01:32:23.913Z,60.47
2019-04-22T01:35:03.556Z,60.27
2019-04-22T01:37:34.572Z,61.00
2019-04-22T01:40:16.664Z,60.71
2019-04-22T01:42:50.586Z,60.15
2019-04-22T01:45:13.955Z,59.79
2019-04-22T01:47:46.668Z,60.69
2019-04-22T01:50:14.191Z,61.14
2019-04-22T01:52:47.255Z,60.54
2019-04-22T01:55:24.928Z,61.44
2019-04-22T01:57:44.485Z,60.26
2019-04-22T02:00:09.446Z,59.97
2019-04-22T02:02:48.794Z,60.85
2019-04-22T02:05:19.131Z,61.00
2019-04-22T02:07:49.036Z,60.72
2019-04-22T02:10:30.749Z,62.04
2019-04-22T02:12:54.382Z,62.28
2019-04-22T02:15:23.729Z,62.05
2019-04-22T02:17:58.061Z,61.66
2019-04-22T02:20:16.871Z,61.95
2019-04-22T02:25:57.659Z,62.42
2019-04-22T02:28:32.599Z,62.26
2019-04-22T02:31:20.761Z,62.44
2019-04-22T02:38:51.844Z,62.35
2019-04-22T02:48:53.261Z,62.74
2019-04-22T02:51:16.915Z,62.80
2019-04-22T02:56:27.232Z,64.03
2019-04-22T02:59:09.572Z,64.05
2019-04-22T03:04:06.721Z,64.26
2019-04-22T03:06:30.911Z,64.78
2019-04-22T03:09:03.476Z,65.22
2019-04-22T03:11:24.809Z,64.71
2019-04-22T03:21:26.165Z,64.97
2019-04-22T03:24:08.969Z,65.32
2019-04-22T03:41:54.470Z,64.78
2019-04-22T03:46:44.803Z,65.34
2019-04-22T03:49:32.864Z,65.81
2019-04-22T03:51:45.758Z,64.73
2019-04-22T03:54:14.890Z,64.81
2019-04-22T03:57:07.129Z,65.15
2019-04-22T03:59:29.107Z,64.80
2019-04-22T04:01:46.457Z,65.27
2019-04-22T04:06:52.543Z,64.54
2019-04-22T04:09:09.374Z,64.17
2019-04-22T04:11:53.911Z,64.31
2019-04-22T04:14:10.008Z,64.07
2019-04-22T04:16:43.871Z,63.77
2019-04-22T04:24:22.457Z,63.51
2019-04-22T04:29:36.147Z,63.80
2019-04-22T04:34:20.049Z,63.47
2019-04-22T04:36:41.870Z,64.30
2019-04-22T04:39:05.523Z,64.38
2019-04-22T04:41:43.209Z,64.48
2019-04-22T04:46:45.248Z,63.80
2019-04-22T04:49:26.398Z,62.92
2019-04-22T04:51:43.888Z,63.01
2019-04-22T05:01:46.758Z,59.55
2019-04-22T05:04:14.287Z,60.90
2019-04-22T05:12:03.412Z,59.29
2019-04-22T05:14:19.211Z,58.03
2019-04-22T05:19:15.864Z,55.46
2019-04-22T05:21:51.081Z,55.51
2019-04-22T05:24:31.397Z,55.12
2019-04-22T05:26:48.863Z,54.48
2019-04-22T05:29:19.488Z,53.71
2019-04-22T05:31:52.408Z,52.62
2019-04-22T05:34:19.573Z,52.74
2019-04-22T05:36:47.767Z,52.37
2019-04-22T05:39:16.826Z,51.34
2019-04-22T05:41:48.611Z,49.71
2019-04-22T05:44:20.742Z,49.08
2019-04-22T05:46:49.989Z,48.78
2019-04-22T05:49:19.312Z,48.04
2019-04-22T05:52:03.146Z,47.48
2019-04-22T05:54:20.938Z,47.23
2019-04-22T05:56:40.106Z,46.56
2019-04-22T05:59:22.901Z,46.05
2019-04-22T06:01:57.084Z,44.70
2019-04-22T06:04:19.808Z,43.04
2019-04-22T06:06:46.695Z,43.14
2019-04-22T06:09:24.552Z,42.02
2019-04-22T06:11:48.244Z,40.88
2019-04-22T06:14:20.318Z,40.15
2019-04-22T06:16:58.427Z,39.16
2019-04-22T06:19:40.000Z,38.06
2019-04-22T06:21:59.153Z,37.31
2019-04-22T06:24:28.991Z,36.20
2019-04-22T06:29:31.873Z,35.80
2019-04-22T06:32:17.893Z,34.73
2019-04-22T06:34:30.731Z,36.04
2019-04-22T06:39:46.680Z,34.60
2019-04-22T06:42:07.982Z,34.30
2019-04-22T06:44:37.047Z,32.24
2019-04-22T06:47:10.630Z,31.22
2019-04-22T06:49:35.807Z,30.49
2019-04-22T06:52:09.151Z,30.58
2019-04-22T06:54:35.981Z,30.99
2019-04-22T06:57:08.791Z,29.75
2019-04-22T06:59:37.773Z,28.92
2019-04-22T07:02:10.053Z,29.49
2019-04-22T07:04:33.693Z,30.05
2019-04-22T07:07:08.406Z,29.34
2019-04-22T07:12:09.469Z,27.88
2019-04-22T07:14:37.351Z,27.74
2019-04-22T07:17:10.235Z,28.18
2019-04-22T07:19:37.150Z,26.82
2019-04-22T07:22:11.258Z,26.40
2019-04-22T07:24:55.938Z,24.16
2019-04-22T07:27:13.039Z,25.36
2019-04-22T07:29:39.007Z,25.25
2019-04-22T07:32:07.856Z,24.33
2019-04-22T07:34:40.489Z,23.96
2019-04-22T07:37:19.714Z,24.47
2019-04-22T07:39:44.140Z,22.79
2019-04-22T07:42:14.162Z,23.01
2019-04-22T07:44:38.628Z,22.93
2019-04-22T07:47:18.933Z,21.65
2019-04-22T07:52:09.771Z,20.39
2019-04-22T07:54:44.909Z,19.10
2019-04-22T07:57:17.389Z,18.00
2019-04-22T07:59:40.543Z,17.49
2019-04-22T08:02:15.789Z,16.66
2019-04-22T08:04:54.255Z,16.27
2019-04-22T08:07:12.439Z,16.24
2019-04-22T08:10:00.339Z,16.26
2019-04-22T08:12:21.670Z,16.89
2019-04-22T08:14:45.683Z,17.17
2019-04-22T08:19:48.414Z,18.84
2019-04-22T08:22:14.383Z,18.16
2019-04-22T08:24:52.849Z,18.87
2019-04-22T08:27:15.459Z,19.06
2019-04-22T08:30:00.101Z,21.35
2019-04-22T08:32:22.437Z,22.16
2019-04-22T08:34:55.397Z,22.21
2019-04-22T08:40:04.187Z,22.72
2019-04-22T08:42:35.156Z,23.33
2019-04-22T08:50:04.633Z,23.64
2019-04-22T08:52:30.252Z,24.13
2019-04-22T08:57:34.755Z,24.26
2019-04-22T09:05:01.479Z,24.21
2019-04-22T09:12:46.696Z,23.72
2019-04-22T09:14:57.350Z,24.35
2019-04-22T09:17:34.840Z,24.06
2019-04-22T09:20:10.879Z,24.15
2019-04-22T09:22:50.349Z,24.06
2019-04-22T09:25:03.828Z,24.78
2019-04-22T09:27:38.540Z,23.43
2019-04-22T09:30:10.334Z,24.04
2019-04-22T09:32:38.808Z,22.91
2019-04-22T09:35:03.447Z,22.76
2019-04-22T09:37:40.758Z,23.22
2019-04-22T09:40:13.861Z,22.88
2019-04-22T09:42:39.172Z,22.38
2019-04-22T09:50:12.743Z,23.97
2019-04-22T09:52:43.752Z,22.70
2019-04-22T09:55:26.158Z,23.24
2019-04-22T09:57:43.855Z,23.17
2019-04-22T10:00:17.188Z,23.64
2019-04-22T10:02:47.126Z,23.77
2019-04-22T10:05:20.846Z,22.83
2019-04-22T10:07:52.501Z,22.43
2019-04-22T10:12:46.690Z,22.79
2019-04-22T10:15:19.694Z,23.27
2019-04-22T10:17:56.533Z,23.52
2019-04-22T10:20:27.069Z,23.00
2019-04-22T10:22:51.919Z,22.90
2019-04-22T10:25:22.970Z,22.69
2019-04-22T10:27:59.875Z,23.55
2019-04-22T10:30:33.870Z,23.32
2019-04-22T10:32:52.711Z,23.98
2019-04-22T10:35:10.257Z,22.33
2019-04-22T10:37:34.647Z,23.81
2019-04-22T10:40:11.481Z,23.93
2019-04-22T10:42:51.323Z,23.48
2019-04-22T10:45:27.956Z,24.17
2019-04-22T10:47:58.264Z,22.76
2019-04-22T10:50:31.490Z,23.20
2019-04-22T10:52:59.894Z,23.08
2019-04-22T10:55:29.474Z,23.66
2019-04-22T10:57:58.932Z,23.68
2019-04-22T11:00:27.579Z,23.07
2019-04-22T11:02:56.148Z,24.00
2019-04-22T11:05:26.013Z,24.00
2019-04-22T11:07:59.636Z,23.63
2019-04-22T11:10:41.218Z,23.29
2019-04-22T11:12:56.791Z,23.82
2019-04-22T11:15:26.572Z,23.67
2019-04-22T11:17:55.635Z,23.68
2019-04-22T11:20:24.255Z,24.10
2019-04-22T11:22:53.051Z,23.75
2019-04-22T11:25:21.735Z,23.22
2019-04-22T11:27:51.376Z,22.94
2019-04-22T11:30:24.325Z,22.81
2019-04-22T11:32:52.180Z,23.43
2019-04-22T11:35:21.893Z,23.36
2019-04-22T11:37:50.838Z,23.27
2019-04-22T11:40:28.551Z,22.47
2019-04-22T11:42:50.324Z,22.23
2019-04-22T11:45:19.434Z,23.34
2019-04-22T11:47:48.731Z,23.19
2019-04-22T11:50:17.845Z,23.21
2019-04-22T11:52:46.936Z,22.81
2019-04-22T11:55:17.041Z,23.10
2019-04-22T11:57:45.636Z,22.18
2019-04-22T12:00:18.719Z,22.97
2019-04-22T12:02:47.285Z,21.74
2019-04-22T12:05:17.503Z,22.06
2019-04-22T12:07:47.005Z,21.95
2019-04-22T12:10:28.204Z,22.48
2019-04-22T12:12:49.580Z,22.62
2019-04-22T12:15:19.073Z,22.72
2019-04-22T12:17:48.907Z,22.61
2019-04-22T12:20:19.788Z,21.77
2019-04-22T12:22:49.169Z,22.20
2019-04-22T12:25:31.839Z,22.65
2019-04-22T12:27:51.034Z,22.19
2019-04-22T12:30:21.380Z,22.36
2019-04-22T12:32:52.521Z,22.53
2019-04-22T12:35:20.604Z,22.96
2019-04-22T12:37:55.650Z,23.55
2019-04-22T12:40:32.725Z,23.37
2019-04-22T12:42:53.491Z,23.07
2019-04-22T12:45:22.514Z,23.64
2019-04-22T12:47:51.129Z,21.76
2019-04-22T12:50:26.019Z,22.10
2019-04-22T12:52:57.695Z,21.86
2019-04-22T12:55:21.955Z,22.03
2019-04-22T12:57:53.501Z,23.54
2019-04-22T13:00:22.665Z,22.27
2019-04-22T13:02:51.462Z,22.08
2019-04-22T13:05:22.824Z,22.08
2019-04-22T13:07:53.685Z,21.79
2019-04-22T13:10:22.225Z,21.85
2019-04-22T13:12:50.985Z,21.37
2019-04-22T13:15:20.407Z,21.74
2019-04-22T13:18:02.323Z,21.14
2019-04-22T13:20:24.195Z,20.62
2019-04-22T13:22:57.174Z,21.40
2019-04-22T13:25:28.014Z,20.78
2019-04-22T13:27:57.452Z,22.59
2019-04-22T13:30:28.272Z,20.61
2019-04-22T13:32:56.883Z,21.12
2019-04-22T13:35:26.202Z,21.69
2019-04-22T13:37:57.337Z,22.82
2019-04-22T13:40:26.342Z,22.38
2019-04-22T13:42:55.615Z,23.17
2019-04-22T13:45:29.748Z,23.51
2019-04-22T13:48:16.858Z,23.32
2019-04-22T13:51:00.840Z,22.79
2019-04-22T13:58:14.599Z,21.19
2019-04-22T14:00:34.479Z,21.20
2019-04-22T14:03:18.252Z,21.35
2019-04-22T14:05:52.888Z,21.67
2019-04-22T14:08:22.994Z,22.10
2019-04-22T14:10:52.506Z,22.38
2019-04-22T14:13:21.693Z,22.87
2019-04-22T14:15:51.129Z,22.25
2019-04-22T14:18:23.111Z,21.54
2019-04-22T14:20:51.278Z,22.32
2019-04-22T14:23:20.508Z,21.14
2019-04-22T14:25:50.705Z,21.61
2019-04-22T14:28:22.972Z,21.31
2019-04-22T14:30:50.695Z,21.17
2019-04-22T14:33:20.300Z,21.40
2019-04-22T14:35:50.170Z,22.00
2019-04-22T14:38:19.839Z,21.93
2019-04-22T14:40:52.010Z,21.88
2019-04-22T14:43:49.976Z,22.46
2019-04-22T14:46:33.399Z,21.67
2019-04-22T14:51:11.665Z,21.60
2019-04-22T14:53:43.339Z,21.51
2019-04-22T14:55:58.170Z,21.33
2019-04-22T14:58:26.850Z,21.38
2019-04-22T15:00:56.916Z,22.02
2019-04-22T15:03:26.013Z,22.66
2019-04-22T15:05:54.710Z,22.45
2019-04-22T15:08:24.673Z,22.50
2019-04-22T15:10:54.039Z,23.76
2019-04-22T15:13:23.359Z,23.99
2019-04-22T15:15:59.005Z,25.31
2019-04-22T15:18:44.194Z,25.00
2019-04-22T15:21:16.984Z,24.77
2019-04-22T15:23:48.661Z,25.57
2019-04-22T15:26:17.402Z,25.53
2019-04-22T15:28:51.424Z,26.03
2019-04-22T15:31:19.462Z,26.37
2019-04-22T15:33:50.206Z,26.07
2019-04-22T15:36:18.088Z,26.16
2019-04-22T15:38:59.621Z,26.11
2019-04-22T15:41:28.581Z,24.69
2019-04-22T15:43:57.465Z,24.08
2019-04-22T15:46:25.902Z,24.66
2019-04-22T15:48:58.030Z,25.27
2019-04-22T15:51:28.874Z,25.80
2019-04-22T15:53:58.060Z,25.80
2019-04-22T15:56:26.641Z,26.91
2019-04-22T15:58:55.534Z,25.13
2019-04-22T16:01:28.868Z,25.34
2019-04-22T16:03:54.749Z,25.61
2019-04-22T16:06:23.989Z,25.94
2019-04-22T16:08:53.916Z,26.04
2019-04-22T16:11:23.836Z,25.84
2019-04-22T16:13:52.571Z,25.85
2019-04-22T16:16:21.029Z,26.44
2019-04-22T16:18:50.669Z,25.73
2019-04-22T16:21:30.944Z,26.02
2019-04-22T16:23:52.169Z,26.31
2019-04-22T16:26:22.236Z,26.21
2019-04-22T16:28:55.404Z,26.28
2019-04-22T16:31:22.361Z,26.74
2019-04-22T16:33:52.375Z,26.20
2019-04-22T16:36:20.979Z,26.61
2019-04-22T16:38:49.379Z,26.73
2019-04-22T16:41:21.408Z,26.75
2019-04-22T16:43:50.771Z,27.04
2019-04-22T16:46:19.587Z,27.33
2019-04-22T16:48:49.678Z,27.37
2019-04-22T16:51:18.375Z,27.43
2019-04-22T16:53:47.519Z,27.68
2019-04-22T16:56:17.549Z,28.38
2019-04-22T16:58:50.713Z,28.36
2019-04-22T17:01:28.486Z,28.37
2019-04-22T17:03:58.641Z,28.55
2019-04-22T17:06:29.926Z,29.20
2019-04-22T17:08:58.559Z,29.10
2019-04-22T17:11:27.603Z,29.29
2019-04-22T17:14:01.211Z,29.67
2019-04-22T17:16:32.568Z,30.06
2019-04-22T17:19:06.042Z,29.97
2019-04-22T17:21:35.347Z,30.43
2019-04-22T17:24:05.562Z,30.76
2019-04-22T17:26:34.542Z,31.00
2019-04-22T17:29:06.289Z,31.42
2019-04-22T17:31:34.639Z,31.34
2019-04-22T17:34:04.712Z,31.52
2019-04-22T17:36:36.116Z,31.74
2019-04-22T17:39:25.882Z,31.85
2019-04-22T17:41:56.882Z,32.24
2019-04-22T17:44:42.364Z,32.73
2019-04-22T17:47:03.874Z,32.63
2019-04-22T17:49:50.312Z,33.09
2019-04-22T17:54:50.451Z,33.60
2019-04-22T17:57:21.632Z,33.39
2019-04-22T17:59:50.645Z,33.59
2019-04-22T18:02:23.390Z,33.96
2019-04-22T18:04:40.387Z,34.27
2019-04-22T18:07:31.244Z,34.23
2019-04-22T18:12:33.836Z,35.18
2019-04-22T18:14:59.590Z,34.78
2019-04-22T18:17:29.168Z,35.18
2019-04-22T18:19:53.208Z,35.50
2019-04-22T18:22:21.630Z,35.61
2019-04-22T18:24:52.897Z,35.68
2019-04-22T18:27:38.958Z,36.07
2019-04-22T18:29:59.096Z,35.79
2019-04-22T18:32:17.587Z,36.23
2019-04-22T18:34:51.557Z,36.54
2019-04-22T18:37:19.970Z,36.41
2019-04-22T18:39:56.966Z,36.34
2019-04-22T18:42:23.884Z,36.44
2019-04-22T18:45:19.852Z,36.74
2019-04-22T18:47:24.869Z,36.69
2019-04-22T18:49:55.055Z,36.67
2019-04-22T18:52:37.972Z,36.99
2019-04-22T18:55:20.286Z,36.94
2019-04-22T18:58:01.104Z,36.68
2019-04-22T19:00:18.030Z,37.23
2019-04-22T19:02:54.276Z,37.09
2019-04-22T19:05:30.238Z,37.11
2019-04-22T19:08:15.064Z,37.33
2019-04-22T19:10:56.095Z,37.22
2019-04-22T19:13:37.639Z,37.44
2019-04-22T19:15:48.362Z,38.05
2019-04-22T19:18:18.722Z,38.98
2019-04-22T19:20:47.765Z,39.94
2019-04-22T19:23:20.713Z,40.47
2019-04-22T19:25:41.858Z,41.53
2019-04-22T19:28:27.415Z,42.60
2019-04-22T19:30:50.887Z,42.57
2019-04-22T19:33:19.076Z,43.65
2019-04-22T19:35:41.539Z,43.81
2019-04-22T19:38:12.193Z,43.96
2019-04-22T19:41:02.480Z,44.24
2019-04-22T19:43:22.978Z,44.33
2019-04-22T19:45:50.622Z,45.56
2019-04-22T19:50:58.862Z,45.77
2019-04-22T19:53:27.720Z,46.71
2019-04-22T19:55:53.852Z,46.62
2019-04-22T19:58:27.792Z,47.18
2019-04-22T20:01:13.074Z,46.92
2019-04-22T20:03:50.913Z,47.20
2019-04-22T20:06:22.009Z,47.01
2019-04-22T20:08:55.980Z,46.42
2019-04-22T20:11:23.202Z,45.88
2019-04-22T20:13:55.709Z,45.16
2019-04-22T20:16:22.546Z,44.05
2019-04-22T20:18:58.179Z,43.37
2019-04-22T20:21:33.372Z,41.73
2019-04-22T20:23:47.278Z,40.50
2019-04-22T20:26:26.511Z,39.15
2019-04-22T20:28:59.075Z,38.06
2019-04-22T20:31:28.910Z,37.80
2019-04-22T20:34:02.889Z,37.53
2019-04-22T20:36:55.436Z,38.18
2019-04-22T20:38:59.398Z,37.43
2019-04-22T20:41:31.553Z,37.34
2019-04-22T20:44:11.394Z,37.10
2019-04-22T20:46:37.669Z,37.05
2019-04-22T20:49:04.972Z,37.42
2019-04-22T20:51:51.576Z,37.56
2019-04-22T20:54:12.365Z,37.46
2019-04-22T20:56:36.839Z,37.58
2019-04-22T20:59:08.657Z,37.52
2019-04-22T21:01:41.458Z,37.70
2019-04-22T21:03:59.111Z,37.82
2019-04-22T21:06:42.285Z,38.24
2019-04-22T21:09:20.449Z,38.33
2019-04-22T21:11:38.505Z,38.44
2019-04-22T21:14:13.313Z,38.84
2019-04-22T21:16:51.604Z,38.87
2019-04-22T21:19:29.675Z,39.10
2019-04-22T21:21:50.259Z,39.01
2019-04-22T21:24:20.557Z,39.31
2019-04-22T21:26:48.183Z,39.31
2019-04-22T21:29:15.958Z,39.51
2019-04-22T21:31:54.538Z,39.46
2019-04-22T21:34:22.385Z,39.76
2019-04-22T21:36:56.980Z,39.72
2019-04-22T21:39:23.396Z,40.29
2019-04-22T21:41:52.824Z,40.50
2019-04-22T21:44:26.651Z,40.56
2019-04-22T21:47:03.374Z,40.47
2019-04-22T21:49:38.934Z,40.66
2019-04-22T21:52:01.638Z,40.71
2019-04-22T21:54:40.678Z,40.64
2019-04-22T21:57:30.780Z,40.95
2019-04-22T21:59:57.494Z,40.79
2019-04-22T22:02:54.528Z,40.94
2019-04-22T22:04:55.174Z,41.58
2019-04-22T22:07:18.311Z,41.67
2019-04-22T22:10:05.934Z,41.50
2019-04-22T22:12:37.738Z,41.53
2019-04-22T22:15:06.817Z,41.82
2019-04-22T22:18:02.304Z,42.12
2019-04-22T22:20:34.087Z,42.37
2019-04-22T22:23:12.548Z,42.45
2019-04-22T22:25:28.132Z,42.82
2019-04-22T22:28:06.778Z,43.03
2019-04-22T22:30:55.398Z,43.06
2019-04-22T22:33:05.499Z,43.36
2019-04-22T22:35:35.712Z,42.89
2019-04-22T22:38:06.586Z,43.01
2019-04-22T22:40:24.211Z,43.49
2019-04-22T22:42:52.988Z,43.60
2019-04-22T22:45:31.726Z,43.66
2019-04-22T22:48:18.868Z,44.14
2019-04-22T22:50:37.498Z,44.11
2019-04-22T22:53:27.584Z,44.68
2019-04-22T22:55:41.374Z,45.43
2019-04-22T22:58:13.156Z,45.05
2019-04-22T23:00:39.486Z,45.46
2019-04-22T23:05:45.377Z,45.85
2019-04-22T23:10:52.155Z,46.42
2019-04-22T23:13:18.992Z,46.85
2019-04-22T23:15:38.712Z,47.16
2019-04-22T23:17:51.865Z,47.13
2019-04-22T23:20:30.260Z,47.88
2019-04-22T23:23:14.317Z,47.75
2019-04-22T23:25:45.720Z,47.60
2019-04-22T23:28:13.292Z,48.04
2019-04-22T23:30:49.774Z,48.63
2019-04-22T23:33:37.852Z,48.39
2019-04-22T23:36:06.119Z,48.52
2019-04-22T23:38:38.500Z,48.72
2019-04-22T23:41:17.014Z,48.85
2019-04-22T23:43:53.792Z,48.70
2019-04-22T23:46:11.454Z,48.75
2019-04-22T23:48:33.497Z,49.72
2019-04-22T23:51:13.760Z,49.19
2019-04-22T23:56:13.587Z,49.17
2019-04-22T23:58:52.634Z,49.46
